Time;durP1;ratioP1;P1;durP2;ratioP2;P2;SDS_P1;SDS_P2;PMS_P1;PMS_P2;Temp;Humidity;BMP_temperature;BMP_pressure;BME280_temperature;BME280_humidity;BME280_pressure;Samples;Min_cycle;Max_cycle;Signal;HPM_P1;HPM_P2
2021/10/14 00:02:02;;;;;;;32.00;16.30;;;;;;;15.32;71.87;98565.72;27206;1217;3027825;-69
2021/10/14 00:04:32;;;;;;;21.90;11.90;;;;;;;15.16;72.79;98569.20;27195;1217;3067824;-64
2021/10/14 00:07:01;;;;;;;25.00;11.70;;;;;;;15.56;71.86;98568.80;27212;1217;3028525;-67
2021/10/14 00:09:30;;;;;;;28.80;14.40;;;;;;;15.94;70.74;98569.58;27225;1216;3026497;-70
2021/10/14 00:11:59;;;;;;;25.80;15.00;;;;;;;15.95;70.51;98572.84;27237;1217;3026322;-69
2021/10/14 00:14:29;;;;;;;26.60;14.90;;;;;;;15.77;70.73;98577.58;27239;1216;3050876;-66
2021/10/14 00:16:58;;;;;;;29.50;15.30;;;;;;;15.46;71.82;98579.08;27250;1216;3026698;-70
2021/10/14 00:19:26;;;;;;;25.90;14.20;;;;;;;15.21;72.49;98581.63;27176;1217;3067300;-67
2021/10/14 00:21:55;;;;;;;19.90;10.40;;;;;;;14.98;73.59;98586.17;27233;1218;3029280;-67
2021/10/14 00:24:24;;;;;;;22.30;11.00;;;;;;;15.54;72.77;98587.15;27224;1217;3050320;-69
2021/10/14 00:26:53;;;;;;;21.50;11.70;;;;;;;15.94;70.95;98580.88;27207;1216;3026415;-68
2021/10/14 00:29:23;;;;;;;23.00;12.20;;;;;;;15.88;70.98;98582.50;27216;1217;3055242;-67
2021/10/14 00:31:52;;;;;;;18.50;12.40;;;;;;;15.74;70.83;98580.86;27212;1217;3028398;-66
2021/10/14 00:34:20;;;;;;;26.20;17.20;;;;;;;15.24;72.10;98584.34;27200;1218;3052110;-67
2021/10/14 00:36:49;;;;;;;35.80;23.20;;;;;;;14.67;73.08;98590.23;27198;1202;3026698;-69
2021/10/14 00:39:19;;;;;;;35.30;21.10;;;;;;;14.43;73.50;98598.92;27201;1217;3054371;-71
2021/10/14 00:41:47;;;;;;;39.70;23.20;;;;;;;14.63;73.19;98593.64;27189;1217;3026511;-67
2021/10/14 00:44:16;;;;;;;44.70;28.00;;;;;;;15.02;71.49;98592.91;27222;1217;3054319;-66
2021/10/14 00:46:53;;;;;;;46.00;30.80;;;;;;;14.72;71.69;98601.41;27261;1217;3026346;-63
2021/10/14 00:49:22;;;;;;;57.90;33.80;;;;;;;14.44;72.77;98607.27;27204;1217;3050604;-66
2021/10/14 00:51:51;;;;;;;53.80;34.60;;;;;;;14.10;73.81;98608.80;27276;1216;3026641;-64
2021/10/14 00:54:20;;;;;;;47.30;30.80;;;;;;;13.80;75.05;98610.31;27236;1216;3046797;-66
2021/10/14 00:56:49;;;;;;;35.80;21.20;;;;;;;13.37;76.51;98612.94;27244;1210;3025791;-69
2021/10/14 00:59:20;;;;;;;39.40;22.00;;;;;;;13.72;75.61;98619.35;27228;1217;3069968;-68
2021/10/14 01:01:49;;;;;;;35.00;22.40;;;;;;;14.05;74.42;98617.05;27251;1217;3027130;-66
2021/10/14 01:04:18;;;;;;;27.50;18.00;;;;;;;14.08;73.46;98616.36;27169;1217;3026053;-68
2021/10/14 01:06:48;;;;;;;26.20;15.10;;;;;;;13.77;73.83;98621.11;27201;1217;3069017;-66
2021/10/14 01:09:16;;;;;;;25.00;16.00;;;;;;;13.28;74.83;98627.63;27205;1217;3027324;-69
2021/10/14 01:11:45;;;;;;;28.60;17.10;;;;;;;13.09;75.82;98630.98;27252;1217;3051226;-65
2021/10/14 01:14:14;;;;;;;22.50;14.40;;;;;;;12.81;76.95;98641.94;27181;1216;3025968;-66
2021/10/14 01:16:45;;;;;;;24.20;15.50;;;;;;;13.10;76.05;98641.63;27194;1217;3054690;-67
2021/10/14 01:19:14;;;;;;;34.40;19.20;;;;;;;13.43;74.68;98642.33;27237;1217;3028862;-68
2021/10/14 01:21:44;;;;;;;32.80;20.20;;;;;;;13.22;74.66;98645.98;27210;1216;3027157;-67
2021/10/14 01:24:13;;;;;;;39.30;21.10;;;;;;;12.88;75.69;98649.98;27218;1217;3026480;-65
2021/10/14 01:26:42;;;;;;;35.60;22.10;;;;;;;12.73;75.91;98654.30;27230;1217;3050170;-64
2021/10/14 01:29:11;;;;;;;27.80;17.00;;;;;;;12.57;76.64;98655.59;27193;1217;3028295;-66
2021/10/14 01:31:40;;;;;;;23.70;14.70;;;;;;;13.09;75.47;98659.77;27229;1217;3027751;-70
2021/10/14 01:34:09;;;;;;;25.50;15.10;;;;;;;13.39;73.62;98659.45;27262;1216;3049974;-64
2021/10/14 01:36:38;;;;;;;26.20;15.70;;;;;;;13.14;73.89;98670.42;27176;1217;3028895;-67
2021/10/14 01:39:07;;;;;;;24.50;15.90;;;;;;;12.72;75.07;98674.10;27228;1217;3054327;-65
2021/10/14 01:41:36;;;;;;;24.30;15.30;;;;;;;12.50;75.57;98682.15;27234;1217;3025830;-65
2021/10/14 01:44:05;;;;;;;26.40;16.30;;;;;;;12.29;75.78;98687.19;27214;1217;3051496;-67
2021/10/14 01:46:35;;;;;;;17.20;11.50;;;;;;;11.91;76.94;98703.16;27225;1217;3026720;-68
2021/10/14 01:49:04;;;;;;;16.10;10.40;;;;;;;12.56;75.18;98697.52;27250;1218;3026167;-63
2021/10/14 01:51:34;;;;;;;16.80;9.80;;;;;;;12.79;73.91;98700.91;27201;1217;3050579;-66
2021/10/14 01:54:03;;;;;;;19.20;12.10;;;;;;;12.23;75.05;98715.06;27214;1216;3027993;-69
2021/10/14 01:56:34;;;;;;;18.90;12.20;;;;;;;11.82;76.94;98708.05;27242;1217;3057894;-70
2021/10/14 01:59:04;;;;;;;10.10;7.10;;;;;;;11.70;76.95;98720.06;27208;1217;3026191;-64
2021/10/14 02:01:32;;;;;;;12.30;7.40;;;;;;;11.45;77.38;98728.61;27226;1217;3052742;-64
2021/10/14 02:04:02;;;;;;;10.00;6.70;;;;;;;11.60;77.38;98726.96;27243;1217;3026321;-67
2021/10/14 02:06:31;;;;;;;11.20;7.40;;;;;;;11.66;76.56;98732.09;27207;1217;3052652;-68
2021/10/14 02:09:02;;;;;;;8.70;6.30;;;;;;;11.56;76.74;98733.55;27228;1217;3026583;-65
2021/10/14 02:11:31;;;;;;;9.90;5.60;;;;;;;11.10;78.08;98739.46;27242;1217;3027879;-64
2021/10/14 02:14:00;;;;;;;8.70;5.10;;;;;;;11.00;78.49;98743.02;27221;1210;3026046;-69
2021/10/14 02:16:29;;;;;;;6.80;4.80;;;;;;;10.73;79.51;98746.14;27205;1217;3053786;-69
2021/10/14 02:18:58;;;;;;;5.90;4.10;;;;;;;10.99;78.94;98744.78;27222;1217;3025783;-68
2021/10/14 02:21:27;;;;;;;6.00;3.50;;;;;;;11.45;76.80;98742.66;27253;1218;3051592;-68
2021/10/14 02:23:55;;;;;;;6.50;4.00;;;;;;;11.36;76.18;98742.66;27222;1217;3026352;-67
2021/10/14 02:26:24;;;;;;;5.50;3.30;;;;;;;11.11;76.97;98756.39;27211;1217;3048394;-66
2021/10/14 02:28:54;;;;;;;3.90;2.60;;;;;;;10.77;77.93;98778.51;27232;1217;3026376;-70
2021/10/14 02:31:23;;;;;;;3.10;2.00;;;;;;;10.69;78.95;98778.86;27188;1217;3027030;-67
2021/10/14 02:33:52;;;;;;;3.10;2.00;;;;;;;11.13;77.26;98777.96;27204;1217;3047796;-69
2021/10/14 02:36:21;;;;;;;2.80;1.90;;;;;;;11.22;76.39;98788.02;27285;1217;3026316;-69
2021/10/14 02:38:50;;;;;;;2.30;1.70;;;;;;;11.08;76.05;98794.14;27186;1217;3067970;-67
2021/10/14 02:41:19;;;;;;;2.00;1.00;;;;;;;11.01;76.65;98784.27;27198;1217;3026467;-66
2021/10/14 02:43:48;;;;;;;1.70;1.40;;;;;;;10.67;77.53;98788.16;27230;1217;3026839;-67
2021/10/14 02:46:19;;;;;;;1.80;1.40;;;;;;;10.55;78.54;98792.83;27260;1217;3068509;-66
2021/10/14 02:48:48;;;;;;;1.80;1.40;;;;;;;11.23;76.74;98802.84;27187;1217;3027287;-68
2021/10/14 02:51:17;;;;;;;2.50;1.50;;;;;;;11.48;75.03;98805.68;27236;1216;3050088;-62
2021/10/14 02:53:46;;;;;;;2.60;1.70;;;;;;;11.23;75.53;98807.77;27205;1217;3026311;-68
2021/10/14 02:56:15;;;;;;;1.50;1.20;;;;;;;11.22;75.22;98812.34;27234;1217;3054344;-71
2021/10/14 02:58:43;;;;;;;2.30;1.70;;;;;;;10.77;76.71;98820.16;27223;1216;3028592;-66
2021/10/14 03:01:13;;;;;;;1.60;1.20;;;;;;;10.60;77.08;98822.27;27183;1217;3051023;-65
2021/10/14 03:03:41;;;;;;;1.80;1.00;;;;;;;10.55;77.34;98825.09;27220;1217;3028434;-68
2021/10/14 03:06:12;;;;;;;1.10;0.90;;;;;;;10.94;76.35;98835.75;27209;1217;3057333;-70
2021/10/14 03:08:42;;;;;;;3.00;1.70;;;;;;;11.04;75.28;98833.98;27207;1217;3026054;-69
2021/10/14 03:11:11;;;;;;;3.30;2.00;;;;;;;11.00;75.48;98836.38;27233;1217;3026753;-64
2021/10/14 03:13:40;;;;;;;3.10;2.00;;;;;;;10.66;76.28;98838.95;27209;1217;3055118;-64
2021/10/14 03:16:09;;;;;;;2.40;1.80;;;;;;;10.43;77.26;98841.48;27231;1217;3026409;-66
2021/10/14 03:18:38;;;;;;;1.60;1.10;;;;;;;10.22;78.06;98854.61;27216;1217;3051496;-65
2021/10/14 03:21:07;;;;;;;1.60;0.90;;;;;;;10.60;76.69;98855.31;27233;1217;3028902;-69
2021/10/14 03:23:36;;;;;;;1.20;0.70;;;;;;;10.96;75.20;98869.78;27222;1217;3025942;-69
2021/10/14 03:26:07;;;;;;;1.00;0.80;;;;;;;10.72;75.31;98874.26;27221;1217;3054817;-68
2021/10/14 03:28:36;;;;;;;1.50;0.90;;;;;;;10.39;76.73;98882.52;27225;1217;3026396;-65
2021/10/14 03:31:05;;;;;;;1.20;0.70;;;;;;;10.27;76.98;98882.67;27193;1217;3025915;-72
2021/10/14 03:33:35;;;;;;;0.90;0.70;;;;;;;9.96;78.23;98901.17;27229;1217;3053858;-71
2021/10/14 03:36:04;;;;;;;1.30;0.70;;;;;;;10.40;77.02;98896.66;27212;1211;3026900;-70
2021/10/14 03:38:34;;;;;;;0.80;0.80;;;;;;;10.84;75.29;98902.02;27236;1217;3051081;-71
2021/10/14 03:41:03;;;;;;;1.40;0.80;;;;;;;10.56;75.87;98918.66;27259;1217;3027913;-67
2021/10/14 03:43:32;;;;;;;1.10;0.80;;;;;;;10.40;76.16;98913.64;27208;1216;3050988;-69
2021/10/14 03:46:01;;;;;;;1.40;1.00;;;;;;;10.18;76.81;98923.30;27225;1217;3027734;-67
2021/10/14 03:48:30;;;;;;;0.90;0.80;;;;;;;9.98;77.91;98928.17;27212;1217;3067241;-70
2021/10/14 03:51:03;;;;;;;1.30;0.80;;;;;;;10.30;77.05;98921.47;27219;1216;3048166;-69
2021/10/14 03:53:32;;;;;;;1.70;1.30;;;;;;;10.66;75.59;98916.08;27213;1216;3028861;-69
2021/10/14 03:56:02;;;;;;;1.20;0.90;;;;;;;10.61;75.34;98926.90;27184;1216;3070364;-69
2021/10/14 03:58:31;;;;;;;1.90;1.20;;;;;;;10.22;76.54;98935.82;27224;1217;3026311;-68
2021/10/14 04:01:00;;;;;;;1.10;0.80;;;;;;;9.97;77.43;98952.00;27221;1218;3049994;-71
2021/10/14 04:04:51;;;;;;;1.10;1.00;;;;;;;10.09;77.07;98949.34;34329;1218;3025517;-70
2021/10/14 04:07:20;;;;;;;2.20;1.60;;;;;;;10.45;75.83;98955.29;27181;1218;3026757;-67
2021/10/14 04:09:50;;;;;;;1.90;1.50;;;;;;;10.52;74.99;98958.33;27242;1219;3026505;-67
2021/10/14 04:12:19;;;;;;;2.00;1.50;;;;;;;10.10;76.34;98958.48;27253;1217;3026599;-70
2021/10/14 04:14:49;;;;;;;1.80;1.40;;;;;;;9.88;77.57;98965.90;27201;1217;3054944;-67
2021/10/14 04:17:18;;;;;;;2.00;1.80;;;;;;;10.22;76.14;98972.93;27202;1217;3026514;-67
2021/10/14 04:19:48;;;;;;;2.90;1.70;;;;;;;10.39;75.18;98966.21;27238;1217;3048909;-70
2021/10/14 04:22:17;;;;;;;2.70;2.00;;;;;;;10.22;75.29;98976.59;27228;1217;3027868;-68
2021/10/14 04:24:47;;;;;;;2.60;2.20;;;;;;;10.01;76.13;98991.30;27201;1218;3067809;-68
2021/10/14 04:27:16;;;;;;;3.70;2.10;;;;;;;9.76;77.44;99007.98;27234;1217;3027645;-69
2021/10/14 04:29:47;;;;;;;3.10;2.30;;;;;;;9.83;77.96;99018.20;27246;1217;3026524;-70
2021/10/14 04:32:16;;;;;;;3.60;2.70;;;;;;;10.28;76.20;99018.55;27212;1217;3026202;-67
2021/10/14 04:34:45;;;;;;;4.20;2.90;;;;;;;10.27;75.82;99013.06;27223;1217;3047775;-69
2021/10/14 04:37:14;;;;;;;5.10;3.40;;;;;;;10.28;75.45;99031.52;27257;1217;3027334;-67
2021/10/14 04:39:43;;;;;;;5.30;3.20;;;;;;;9.89;76.96;99030.04;27197;1217;3068033;-68
2021/10/14 04:42:12;;;;;;;4.20;2.70;;;;;;;9.78;77.42;99034.91;27205;1217;3025674;-68
2021/10/14 04:44:41;;;;;;;4.40;3.10;;;;;;;10.20;75.65;99042.94;27218;1217;3051920;-70
2021/10/14 04:47:10;;;;;;;4.40;3.50;;;;;;;10.40;74.57;99040.21;27215;1217;3025989;-71
2021/10/14 04:49:39;;;;;;;4.20;3.30;;;;;;;10.32;74.36;99054.59;27213;1218;3054330;-69
2021/10/14 04:52:08;;;;;;;5.30;3.50;;;;;;;9.93;75.02;99063.90;27231;1217;3026587;-69
2021/10/14 04:54:38;;;;;;;5.40;3.30;;;;;;;9.76;75.67;99069.84;27211;1217;3049100;-71
2021/10/14 04:57:07;;;;;;;5.30;2.50;;;;;;;9.59;75.97;99085.28;27240;1201;3026787;-69
2021/10/14 04:59:36;;;;;;;4.80;3.40;;;;;;;9.96;74.91;99097.64;27234;1218;3055584;-69
2021/10/14 05:02:05;;;;;;;4.30;3.10;;;;;;;10.20;74.18;99103.48;27245;1217;3028282;-71
2021/10/14 05:04:34;;;;;;;4.50;3.30;;;;;;;9.99;74.21;99115.85;27211;1217;3051454;-69
2021/10/14 05:07:02;;;;;;;4.50;3.10;;;;;;;9.72;74.98;99123.82;27232;1217;3026393;-68
2021/10/14 05:09:31;;;;;;;5.20;3.60;;;;;;;9.61;75.26;99132.73;27271;1217;3050853;-68
2021/10/14 05:12:15;;;;;;;3.60;3.10;;;;;;;9.51;75.61;99127.17;27223;1216;3054881;-68
2021/10/14 05:14:45;;;;;;;8.30;3.10;;;;;;;9.53;75.57;99145.97;27245;1216;3026483;-68
2021/10/14 05:17:14;;;;;;;3.40;2.90;;;;;;;9.97;74.87;99137.80;27208;1217;3026481;-68
2021/10/14 05:19:43;;;;;;;5.90;3.50;;;;;;;10.25;73.50;99147.08;27231;1217;3054272;-69
2021/10/14 05:22:13;;;;;;;5.20;4.00;;;;;;;9.94;74.43;99155.48;27244;1216;3027011;-71
2021/10/14 05:24:42;;;;;;;8.70;5.70;;;;;;;9.88;74.70;99160.25;27196;1217;3026068;-72
2021/10/14 05:27:11;;;;;;;9.00;6.60;;;;;;;9.73;75.53;99158.04;27224;1217;3026051;-66
2021/10/14 05:29:41;;;;;;;7.00;4.90;;;;;;;9.65;76.07;99171.99;27228;1217;3057780;-71
2021/10/14 05:32:09;;;;;;;8.00;5.60;;;;;;;10.18;74.59;99175.35;27201;1210;3026017;-71
2021/10/14 05:34:38;;;;;;;10.20;7.00;;;;;;;10.29;73.72;99173.25;27252;1217;3051701;-68
2021/10/14 05:37:08;;;;;;;18.10;8.40;;;;;;;10.12;74.26;99179.54;27272;1217;3026307;-68
2021/10/14 05:39:37;;;;;;;13.00;8.90;;;;;;;10.13;73.72;99196.27;27242;1216;3053626;-71
2021/10/14 05:42:06;;;;;;;15.50;10.60;;;;;;;9.85;74.58;99194.57;27222;1217;3028313;-69
2021/10/14 05:44:35;;;;;;;14.10;9.80;;;;;;;9.67;75.48;99202.65;27257;1217;3048097;-69
2021/10/14 05:47:03;;;;;;;12.40;7.40;;;;;;;9.86;75.13;99200.96;27231;1218;3026329;-70
2021/10/14 05:49:33;;;;;;;15.20;9.60;;;;;;;10.50;72.96;99205.17;27187;1217;3069663;-70
2021/10/14 05:52:03;;;;;;;16.40;10.80;;;;;;;10.45;72.38;99209.53;27211;1216;3028147;-67
2021/10/14 05:54:33;;;;;;;16.70;10.30;;;;;;;10.27;72.84;99212.24;27212;1217;3049172;-69
2021/10/14 05:57:02;;;;;;;18.00;12.00;;;;;;;10.30;72.56;99214.17;27233;1216;3025735;-67
2021/10/14 05:59:31;;;;;;;18.70;12.50;;;;;;;10.08;73.11;99221.65;27260;1217;3026323;-70
2021/10/14 06:02:00;;;;;;;11.50;8.10;;;;;;;9.86;74.27;99232.09;27222;1217;3050224;-68
2021/10/14 06:04:30;;;;;;;12.80;8.50;;;;;;;10.38;72.96;99233.80;27220;1217;3026242;-70
2021/10/14 06:06:59;;;;;;;12.10;9.20;;;;;;;10.42;72.05;99252.23;27221;1217;3027399;-72
2021/10/14 06:09:27;;;;;;;18.20;12.50;;;;;;;10.39;71.86;99244.95;27216;1216;3049501;-71
2021/10/14 06:11:57;;;;;;;22.60;13.00;;;;;;;10.14;72.97;99251.00;27241;1216;3027211;-69
2021/10/14 06:14:26;;;;;;;19.90;13.70;;;;;;;10.08;73.03;99254.35;27266;1217;3026531;-67
2021/10/14 06:16:58;;;;;;;13.40;9.10;;;;;;;9.84;73.98;99268.58;27214;1217;3051778;-72
2021/10/14 06:19:26;;;;;;;11.80;8.10;;;;;;;9.69;74.57;99278.93;27218;1217;3026710;-69
2021/10/14 06:21:55;;;;;;;13.20;9.10;;;;;;;10.34;73.17;99292.80;27223;1217;3052050;-67
2021/10/14 06:24:24;;;;;;;12.10;9.30;;;;;;;10.93;70.32;99282.66;27254;1209;3026261;-72
2021/10/14 06:26:53;;;;;;;17.30;11.00;;;;;;;10.57;70.95;99294.41;27254;1216;3048230;-74
2021/10/14 06:29:22;;;;;;;19.90;12.10;;;;;;;10.27;71.89;99293.42;27278;1217;3025918;-72
2021/10/14 06:31:51;;;;;;;19.90;12.50;;;;;;;9.98;72.73;99300.98;27269;1217;3056852;-65
2021/10/14 06:34:21;;;;;;;17.10;12.70;;;;;;;9.86;72.94;99303.10;27226;1217;3025720;-72
2021/10/14 06:36:49;;;;;;;10.20;7.50;;;;;;;9.69;73.55;99304.67;27242;1217;3028239;-69
2021/10/14 06:39:19;;;;;;;11.20;7.80;;;;;;;10.14;73.17;99310.19;27259;1217;3057479;-71
2021/10/14 06:41:48;;;;;;;16.20;9.10;;;;;;;10.41;71.36;99322.88;27207;1217;3026389;-67
2021/10/14 06:44:17;;;;;;;16.30;10.30;;;;;;;10.33;71.09;99331.27;27250;1217;3027770;-71
2021/10/14 06:46:47;;;;;;;12.60;9.30;;;;;;;10.19;71.57;99342.80;27256;1216;3057296;-68
2021/10/14 06:49:16;;;;;;;14.90;10.30;;;;;;;9.88;72.52;99343.04;27222;1217;3029598;-69
2021/10/14 06:51:45;;;;;;;14.10;10.00;;;;;;;9.94;72.07;99332.19;27230;1217;3026395;-71
2021/10/14 06:54:14;;;;;;;11.10;6.90;;;;;;;9.82;73.00;99336.44;27228;1217;3054755;-68
2021/10/14 06:56:43;;;;;;;15.10;7.60;;;;;;;10.33;71.50;99327.07;27257;1216;3026735;-70
2021/10/14 06:59:12;;;;;;;10.30;8.40;;;;;;;10.64;70.37;99334.07;27292;1217;3026307;-71
2021/10/14 07:01:45;;;;;;;18.10;9.70;;;;;;;10.51;70.17;99344.52;27213;1217;3026734;-72
2021/10/14 07:04:14;;;;;;;16.10;9.80;;;;;;;10.33;70.68;99352.63;27225;1210;3026332;-70
2021/10/14 07:06:43;;;;;;;15.80;10.40;;;;;;;10.05;71.59;99358.69;27223;1217;3052439;-72
2021/10/14 07:09:11;;;;;;;15.20;11.00;;;;;;;9.89;72.04;99365.59;27208;1217;3028618;-68
2021/10/14 07:11:50;;;;;;;13.80;8.40;;;;;;;9.86;72.45;99368.20;27238;1216;3048823;-68
2021/10/14 07:14:20;;;;;;;15.80;9.10;;;;;;;10.30;71.21;99369.44;27260;1217;3052314;-69
2021/10/14 07:16:49;;;;;;;15.60;9.60;;;;;;;10.57;69.96;99371.34;27221;1217;3026564;-69
2021/10/14 07:19:18;;;;;;;15.80;10.50;;;;;;;10.31;70.37;99369.87;27201;1216;3025971;-71
2021/10/14 07:21:47;;;;;;;15.90;11.10;;;;;;;10.18;70.77;99375.40;27218;1217;3028956;-66
2021/10/14 07:24:17;;;;;;;20.90;12.30;;;;;;;10.10;71.14;99382.86;27267;1216;3049157;-71
2021/10/14 07:26:46;;;;;;;18.20;11.80;;;;;;;9.93;71.61;99392.24;27215;1218;3027062;-69
2021/10/14 07:29:15;;;;;;;11.30;7.70;;;;;;;9.95;71.83;99405.79;27263;1209;3026444;-66
2021/10/14 07:31:44;;;;;;;13.80;8.20;;;;;;;10.55;70.44;99405.77;27227;1215;3049508;-69
2021/10/14 07:34:13;;;;;;;18.00;10.00;;;;;;;10.60;69.51;99415.27;27182;1215;3025998;-73
2021/10/14 07:36:42;;;;;;;21.90;11.40;;;;;;;10.54;69.61;99414.40;27224;1215;3051506;-66
2021/10/14 07:39:10;;;;;;;16.90;10.10;;;;;;;10.47;69.80;99419.16;27276;1215;3026892;-66
2021/10/14 07:41:39;;;;;;;17.40;10.10;;;;;;;10.20;70.42;99425.69;27251;1215;3048609;-66
2021/10/14 07:44:08;;;;;;;14.10;9.60;;;;;;;9.87;71.26;99424.10;27227;1215;3029990;-65
2021/10/14 07:46:37;;;;;;;15.60;10.60;;;;;;;9.82;71.37;99420.38;27196;1215;3058227;-69
2021/10/14 07:49:06;;;;;;;11.80;7.60;;;;;;;9.69;72.05;99426.60;27226;1216;3028892;-72
2021/10/14 07:51:36;;;;;;;14.20;8.40;;;;;;;10.18;70.84;99422.49;27227;1216;3054107;-70
2021/10/14 07:54:05;;;;;;;14.70;9.80;;;;;;;10.57;69.33;99435.76;27219;1215;3027985;-70
2021/10/14 07:56:34;;;;;;;14.90;9.10;;;;;;;10.48;69.26;99436.83;27227;1215;3050868;-70
2021/10/14 07:59:03;;;;;;;20.10;12.30;;;;;;;10.17;70.08;99452.33;27242;1209;3026031;-68
2021/10/14 08:01:32;;;;;;;17.10;11.30;;;;;;;10.11;70.43;99455.61;27247;1216;3051094;-69
2021/10/14 08:04:02;;;;;;;22.00;12.60;;;;;;;10.03;70.81;99459.93;27278;1215;3025781;-69
2021/10/14 08:06:33;;;;;;;19.70;11.20;;;;;;;9.83;71.33;99466.34;27233;1215;3069957;-66
2021/10/14 08:09:03;;;;;;;17.20;8.70;;;;;;;9.68;72.23;99469.95;27258;1215;3026197;-67
2021/10/14 08:11:32;;;;;;;14.20;8.70;;;;;;;10.23;70.61;99465.79;27190;1215;3052706;-71
2021/10/14 08:14:01;;;;;;;14.90;9.60;;;;;;;10.59;68.95;99467.52;27206;1215;3025956;-65
2021/10/14 08:16:37;;;;;;;17.40;12.20;;;;;;;10.66;68.51;99468.48;27219;1215;3054038;-69
2021/10/14 08:19:07;;;;;;;19.30;10.90;;;;;;;10.51;68.52;99481.27;27279;1215;3026066;-71
2021/10/14 08:21:36;;;;;;;19.50;11.20;;;;;;;10.31;69.20;99489.45;27207;1215;3026128;-68
2021/10/14 08:24:05;;;;;;;22.70;12.60;;;;;;;9.99;70.31;99497.43;27218;1215;3054702;-71
2021/10/14 08:26:34;;;;;;;23.10;12.30;;;;;;;9.92;70.69;99498.00;27194;1215;3026131;-70
2021/10/14 08:29:03;;;;;;;23.10;13.30;;;;;;;9.83;71.02;99509.54;27231;1216;3049713;-74
2021/10/14 08:31:32;;;;;;;15.70;9.00;;;;;;;9.82;71.08;99510.80;27231;1215;3026419;-71
2021/10/14 08:34:02;;;;;;;18.20;9.10;;;;;;;10.27;69.80;99507.59;27265;1215;3057924;-72
2021/10/14 08:36:34;;;;;;;17.50;9.50;;;;;;;10.74;67.82;99514.76;27199;1215;3026085;-70
2021/10/14 08:39:03;;;;;;;17.00;11.00;;;;;;;10.42;68.53;99526.30;27248;1215;3026460;-72
2021/10/14 08:41:32;;;;;;;18.80;12.10;;;;;;;10.41;68.66;99523.91;27256;1216;3057578;-69
2021/10/14 08:44:01;;;;;;;20.00;11.70;;;;;;;10.27;69.43;99525.21;27211;1215;3026229;-70
2021/10/14 08:46:30;;;;;;;20.30;12.40;;;;;;;10.24;69.18;99521.73;27273;1215;3051051;-69
2021/10/14 08:48:59;;;;;;;19.50;12.40;;;;;;;10.09;69.89;99531.14;27273;1218;3025825;-69
2021/10/14 08:51:29;;;;;;;21.80;13.40;;;;;;;10.00;70.04;99536.92;27304;1216;3051856;-69
2021/10/14 08:53:58;;;;;;;16.90;10.50;;;;;;;9.96;70.26;99540.13;27261;1215;3026796;-71
2021/10/14 08:56:29;;;;;;;18.30;10.00;;;;;;;10.70;68.45;99548.79;27280;1215;3050313;-66
2021/10/14 08:59:00;;;;;;;20.60;10.80;;;;;;;11.37;65.74;99551.75;27326;1215;3026219;-73
2021/10/14 09:01:29;;;;;;;20.10;11.80;;;;;;;11.29;64.98;99568.93;27232;1208;3027122;-73
2021/10/14 09:03:58;;;;;;;20.50;12.60;;;;;;;10.82;66.20;99560.57;27278;1215;3027310;-68
2021/10/14 09:06:27;;;;;;;21.30;13.80;;;;;;;10.61;66.97;99568.96;27210;1216;3053616;-65
2021/10/14 09:08:56;;;;;;;21.30;10.30;;;;;;;10.33;67.56;99588.46;27287;1217;3026432;-68
2021/10/14 09:11:27;;;;;;;21.40;12.70;;;;;;;10.19;67.80;99588.02;27258;1218;3051002;-68
2021/10/14 09:14:04;;;;;;;24.40;12.90;;;;;;;10.19;67.74;99591.52;27230;1215;3026487;-68
2021/10/14 09:16:33;;;;;;;23.60;12.80;;;;;;;10.19;67.87;99580.14;27229;1215;3051896;-71
2021/10/14 09:19:13;;;;;;;23.00;13.30;;;;;;;10.08;68.18;99583.19;27270;1215;3027493;-71
2021/10/14 09:21:56;;;;;;;25.60;14.70;;;;;;;9.97;68.40;99578.23;27233;1215;3054125;-69
2021/10/14 09:24:38;;;;;;;15.30;9.60;;;;;;;10.14;68.33;99581.80;27255;1215;3051202;-68
2021/10/14 09:27:11;;;;;;;15.70;9.20;;;;;;;10.70;66.45;99597.52;27261;1215;3058953;-70
2021/10/14 09:29:40;;;;;;;16.50;9.20;;;;;;;11.17;64.95;99600.71;27215;1215;3048413;-69
2021/10/14 09:32:14;;;;;;;16.20;10.10;;;;;;;11.15;64.80;99603.11;27306;1215;3028348;-68
2021/10/14 09:34:45;;;;;;;24.40;10.80;;;;;;;11.05;65.29;99602.25;27262;1215;3053392;-69
2021/10/14 09:37:15;;;;;;;19.60;10.60;;;;;;;11.00;65.38;99612.42;27287;1216;3027989;-66
2021/10/14 09:39:56;;;;;;;17.00;10.10;;;;;;;10.84;65.94;99616.87;27236;1215;3027738;-67
2021/10/14 09:42:37;;;;;;;16.00;9.10;;;;;;;10.61;65.82;99609.96;27278;1215;3051420;-68
2021/10/14 09:45:28;;;;;;;15.90;10.10;;;;;;;10.28;66.90;99613.95;27223;1216;3051727;-69
2021/10/14 09:48:03;;;;;;;14.30;8.80;;;;;;;10.21;66.87;99634.10;27238;1215;3056151;-71
2021/10/14 09:50:38;;;;;;;16.10;8.90;;;;;;;10.18;67.19;99625.33;27199;1215;3049311;-70
2021/10/14 09:53:10;;;;;;;19.80;9.30;;;;;;;10.40;66.84;99632.37;27261;1215;3052720;-70
2021/10/14 09:55:39;;;;;;;13.60;8.10;;;;;;;10.62;65.99;99622.52;27241;1215;3027366;-65
2021/10/14 09:58:09;;;;;;;12.70;7.70;;;;;;;10.39;65.67;99633.99;27231;1215;3026097;-71
2021/10/14 10:00:39;;;;;;;11.80;8.20;;;;;;;10.27;65.99;99638.33;27216;1215;3026303;-70
2021/10/14 10:03:10;;;;;;;14.90;9.10;;;;;;;10.21;66.19;99639.17;27234;1215;3026209;-74
2021/10/14 10:05:51;;;;;;;14.90;8.40;;;;;;;10.18;66.68;99637.77;27256;1215;3051904;-67
2021/10/14 10:08:31;;;;;;;11.60;7.20;;;;;;;10.17;67.42;99639.25;27188;1215;3055489;-73
2021/10/14 10:11:04;;;;;;;15.30;7.40;;;;;;;10.90;65.36;99647.83;27252;1215;3049293;-75
2021/10/14 10:13:53;;;;;;;14.60;8.40;;;;;;;11.42;63.53;99649.15;27250;1218;3052899;-74
2021/10/14 10:16:23;;;;;;;17.20;8.50;;;;;;;11.20;63.85;99652.73;27235;1215;3025926;-69
2021/10/14 10:18:54;;;;;;;15.80;8.60;;;;;;;11.07;64.40;99661.06;27234;1216;3026334;-67
2021/10/14 10:21:28;;;;;;;14.30;8.50;;;;;;;11.10;64.22;99658.43;27283;1215;3027160;-67
2021/10/14 10:24:07;;;;;;;15.80;9.20;;;;;;;11.11;63.29;99667.13;27231;1215;3051771;-68
2021/10/14 10:26:36;;;;;;;13.30;8.30;;;;;;;11.39;62.51;99674.04;27234;1215;3052706;-64
2021/10/14 10:29:11;;;;;;;14.40;8.50;;;;;;;11.32;62.55;99676.08;27212;1215;3027401;-70
2021/10/14 10:31:46;;;;;;;13.90;8.50;;;;;;;11.36;62.51;99681.61;27282;1215;3051587;-70
2021/10/14 10:34:59;;;;;;;17.20;8.70;;;;;;;11.15;62.68;99689.52;27252;1215;3052685;-71
2021/10/14 10:37:30;;;;;;;13.90;7.90;;;;;;;11.13;62.89;99690.54;27267;1216;3056451;-73
2021/10/14 10:40:12;;;;;;;17.80;8.90;;;;;;;11.13;62.80;99695.10;27225;1215;3026637;-69
2021/10/14 10:43:00;;;;;;;16.70;8.00;;;;;;;11.16;62.72;99692.61;27228;1215;3053204;-66
2021/10/14 10:45:42;;;;;;;13.00;8.20;;;;;;;11.31;62.31;99690.35;27247;1215;3051981;-68
2021/10/14 10:48:12;;;;;;;14.10;8.30;;;;;;;11.50;61.94;99693.75;27212;1215;3070394;-70
2021/10/14 10:50:52;;;;;;;12.30;7.40;;;;;;;11.69;61.78;99698.02;27335;1216;3026879;-65
2021/10/14 10:53:23;;;;;;;12.90;7.20;;;;;;;11.71;60.12;99704.72;27247;1215;3052100;-69
2021/10/14 10:55:55;;;;;;;13.50;7.10;;;;;;;11.81;59.84;99712.55;27237;1215;3028145;-69
2021/10/14 10:58:28;;;;;;;11.50;7.40;;;;;;;11.61;59.44;99713.27;27268;1215;3026433;-70
2021/10/14 11:00:57;;;;;;;14.30;6.70;;;;;;;11.42;59.71;99719.48;27248;1217;3027530;-69
2021/10/14 11:03:27;;;;;;;13.00;7.30;;;;;;;11.34;59.43;99721.67;27270;1217;3029777;-67
2021/10/14 11:05:58;;;;;;;8.30;6.30;;;;;;;11.37;59.38;99733.13;27220;1217;3027629;-65
2021/10/14 11:08:27;;;;;;;10.00;6.00;;;;;;;11.35;59.30;99723.42;27290;1217;3025963;-69
2021/10/14 11:11:07;;;;;;;12.10;7.10;;;;;;;11.25;59.94;99726.60;27228;1217;3030079;-66
2021/10/14 11:13:38;;;;;;;11.50;6.90;;;;;;;11.24;60.07;99728.80;27219;1217;3053573;-64
2021/10/14 11:16:08;;;;;;;11.80;7.00;;;;;;;11.36;59.89;99733.86;27194;1217;3027005;-69
2021/10/14 11:18:51;;;;;;;11.80;7.50;;;;;;;11.32;59.38;99745.31;27210;1217;3025936;-71
2021/10/14 11:21:22;;;;;;;10.90;7.70;;;;;;;11.18;59.82;99747.16;27229;1216;3054418;-72
2021/10/14 11:23:56;;;;;;;11.40;7.40;;;;;;;11.15;59.98;99745.59;27237;1217;3026111;-74
2021/10/14 11:26:32;;;;;;;12.10;7.30;;;;;;;11.11;60.41;99759.70;27222;1217;3057632;-70